10°C Temp
8°C Dewpoint
% Humidity
Temperature
11 KM/H
7 MPH
6 KTS
360°
Due North

Wind Speed
Clear
Conditions
Pressure 1014.92 (hPa) - 29.97 (in)
Visibility 6.2 (mi) - 10.0 (km)

Current Conditions
EGOV
Location 9(mi)
Metar :EGOV 282350Z AUTO 36006KT 9999 NCD 10/08 Q1015
Tue 29th September 00:50 am

Airport
  Metar Aviation API Data Provided by https://www.checkwx.com/ PHP scripts by weather34.com ©2020